createdAt,value
2023-05-10T00:00:35.798Z,152846.69
2023-05-10T00:03:15.003Z,152849.31
2023-05-10T00:05:45.211Z,152868.72
2023-05-10T00:08:17.874Z,152864.84
2023-05-10T00:10:48.139Z,152867.44
2023-05-10T00:13:18.338Z,152846.69
2023-05-10T00:15:48.742Z,152849.31
2023-05-10T00:18:19.013Z,152838.97
2023-05-10T00:20:49.972Z,152828.63
2023-05-10T00:23:22.718Z,152811.78
2023-05-10T00:25:52.834Z,152805.31
2023-05-10T00:28:25.625Z,152820.84
2023-05-10T00:30:58.497Z,152831.19
2023-05-10T00:33:29.439Z,152814.38
2023-05-10T00:35:59.574Z,152815.66
2023-05-10T00:38:32.373Z,152805.31
2023-05-10T00:41:02.546Z,152802.75
2023-05-10T00:43:35.645Z,152796.25
2023-05-10T00:46:08.023Z,152782.00
2023-05-10T00:48:39.052Z,152797.53
2023-05-10T00:51:09.698Z,152783.34
2023-05-10T00:53:45.050Z,152772.94
2023-05-10T00:56:15.643Z,152748.41
2023-05-10T00:58:46.117Z,152756.16
2023-05-10T01:01:17.443Z,152756.16
2023-05-10T01:03:49.355Z,152757.44
2023-05-10T01:06:19.579Z,152750.97
2023-05-10T01:08:52.330Z,152740.63
2023-05-10T01:11:24.832Z,152734.16
2023-05-10T01:14:00.319Z,152730.28
2023-05-10T01:16:33.551Z,152729.00
2023-05-10T01:19:03.864Z,152735.47
2023-05-10T01:21:42.245Z,152722.50
2023-05-10T01:24:50.771Z,152719.94
2023-05-10T01:27:58.132Z,152704.41
2023-05-10T01:31:08.480Z,152699.25
2023-05-10T01:33:47.094Z,152688.84
2023-05-10T01:36:28.852Z,152694.06
2023-05-10T01:39:06.511Z,152687.56
2023-05-10T01:41:45.441Z,152673.34
2023-05-10T01:44:22.430Z,152674.66
2023-05-10T01:46:57.526Z,152656.53
2023-05-10T01:49:34.915Z,152650.09
2023-05-10T01:52:12.602Z,152642.31
2023-05-10T01:54:47.100Z,152626.78
2023-05-10T01:57:19.827Z,152602.22
2023-05-10T01:59:53.570Z,152593.16
2023-05-10T02:02:26.314Z,152569.88
2023-05-10T02:05:01.126Z,152568.59
2023-05-10T02:07:32.601Z,152555.69
2023-05-10T02:10:03.233Z,152536.28
2023-05-10T02:12:35.655Z,152540.13
2023-05-10T02:15:10.772Z,152525.91
2023-05-10T02:17:42.823Z,152501.38
2023-05-10T02:20:17.038Z,152507.84
2023-05-10T02:22:50.955Z,152507.84
2023-05-10T02:25:21.512Z,152471.66
2023-05-10T02:27:52.751Z,152476.81
2023-05-10T02:30:23.680Z,152461.22
2023-05-10T02:32:54.792Z,152461.22
2023-05-10T02:35:29.597Z,152459.94
2023-05-10T02:38:02.699Z,152450.88
2023-05-10T02:40:34.312Z,152432.81
2023-05-10T02:43:06.660Z,152422.47
2023-05-10T02:45:40.213Z,152417.31
2023-05-10T02:48:10.910Z,152394.03
2023-05-10T02:50:49.814Z,152383.69
2023-05-10T02:53:25.037Z,152388.88
2023-05-10T02:55:58.199Z,152397.94
2023-05-10T02:58:28.474Z,152357.81
2023-05-10T03:00:59.716Z,152353.97
2023-05-10T03:03:30.047Z,152365.59
2023-05-10T03:06:03.062Z,152364.31
2023-05-10T03:08:33.536Z,152363.03
2023-05-10T03:11:19.410Z,152343.66
2023-05-10T03:14:00.803Z,152339.75
2023-05-10T03:16:40.225Z,152352.66
2023-05-10T03:19:16.887Z,152360.44
2023-05-10T03:21:54.977Z,152339.75
2023-05-10T03:24:27.195Z,152337.16
2023-05-10T03:27:00.517Z,152333.31
2023-05-10T03:29:32.049Z,152339.75
2023-05-10T03:32:03.072Z,152328.09
2023-05-10T03:34:35.283Z,152335.88
2023-05-10T03:37:07.970Z,152330.72
2023-05-10T03:39:38.176Z,152330.72
2023-05-10T03:42:13.040Z,152347.50
2023-05-10T03:44:43.490Z,152332.00
2023-05-10T03:47:13.699Z,152328.09
2023-05-10T03:49:44.260Z,152324.25
2023-05-10T03:52:19.351Z,152341.03
2023-05-10T03:54:49.518Z,152353.97
2023-05-10T03:57:19.680Z,152348.81
2023-05-10T03:59:49.828Z,152356.53
2023-05-10T04:02:20.974Z,152361.72
2023-05-10T04:04:51.498Z,152366.88
2023-05-10T04:07:24.215Z,152363.03
2023-05-10T04:09:54.411Z,152361.72
2023-05-10T04:12:26.262Z,152365.59
2023-05-10T04:14:56.362Z,152378.53
2023-05-10T04:17:26.616Z,152397.94
2023-05-10T04:19:57.012Z,152410.81
2023-05-10T04:22:30.340Z,152434.09
2023-05-10T04:25:00.518Z,152454.78
2023-05-10T04:27:30.632Z,152470.31
2023-05-10T04:30:01.120Z,152493.63
2023-05-10T04:32:31.528Z,152518.19
2023-05-10T04:35:04.110Z,152527.25
2023-05-10T04:37:37.738Z,152555.69
2023-05-10T04:40:09.462Z,152593.16
2023-05-10T04:42:39.605Z,152616.47
2023-05-10T04:45:11.588Z,152643.59
2023-05-10T04:47:41.998Z,152669.50
2023-05-10T04:50:12.722Z,152712.16
2023-05-10T04:52:45.524Z,152739.34
2023-05-10T04:55:15.676Z,152775.56
2023-05-10T04:57:46.412Z,152807.94
2023-05-10T05:00:18.048Z,152863.56
2023-05-10T05:02:49.385Z,152907.56
2023-05-10T05:05:19.620Z,152950.31
2023-05-10T05:07:52.824Z,152993.03
2023-05-10T05:10:22.944Z,153033.16
2023-05-10T05:12:53.073Z,153069.41
2023-05-10T05:15:23.762Z,153136.78
2023-05-10T05:17:53.944Z,153180.81
2023-05-10T05:20:24.271Z,153228.75
2023-05-10T05:22:57.057Z,153237.78
2023-05-10T05:25:27.254Z,153272.81
2023-05-10T05:27:57.408Z,153310.38
2023-05-10T05:30:29.613Z,153355.75
2023-05-10T05:32:59.893Z,153406.28
2023-05-10T05:35:30.077Z,153440.00
2023-05-10T05:38:02.831Z,153513.91
2023-05-10T05:40:32.978Z,153552.81
2023-05-10T05:43:03.095Z,153543.72
2023-05-10T05:45:33.698Z,153622.81
2023-05-10T05:48:04.058Z,153652.66
2023-05-10T05:50:34.234Z,153668.22
2023-05-10T05:53:06.948Z,153708.47
2023-05-10T05:55:37.105Z,153726.66
2023-05-10T05:58:07.338Z,153774.66
2023-05-10T06:00:38.067Z,153816.16
2023-05-10T06:03:08.654Z,153725.34
2023-05-10T06:05:38.843Z,153818.78
2023-05-10T06:08:11.575Z,153839.53
2023-05-10T06:10:41.828Z,153826.53
2023-05-10T06:13:12.080Z,153883.66
2023-05-10T06:15:42.509Z,153912.22
2023-05-10T06:18:12.714Z,154013.47
2023-05-10T06:20:42.852Z,153953.75
2023-05-10T06:23:15.853Z,154023.88
2023-05-10T06:25:46.047Z,154053.75
2023-05-10T06:28:16.200Z,154039.47
2023-05-10T06:30:46.613Z,154086.22
2023-05-10T06:33:17.271Z,154160.25
2023-05-10T06:35:47.434Z,154171.94
2023-05-10T06:38:20.216Z,154229.06
2023-05-10T06:40:50.359Z,154223.88
2023-05-10T06:43:20.571Z,154283.63
2023-05-10T06:45:52.184Z,154313.50
2023-05-10T06:48:22.825Z,154365.56
2023-05-10T06:50:53.130Z,154317.47
2023-05-10T06:53:26.017Z,154379.84
2023-05-10T06:55:56.261Z,154299.25
2023-05-10T06:58:26.460Z,154372.03
2023-05-10T07:00:58.816Z,154417.50
2023-05-10T07:03:29.054Z,154466.91
2023-05-10T07:06:05.338Z,154508.53
2023-05-10T07:08:38.408Z,154544.91
2023-05-10T07:11:11.558Z,154564.41
2023-05-10T07:13:45.280Z,154628.19
2023-05-10T07:16:15.642Z,154641.16
2023-05-10T07:18:45.851Z,154606.06
2023-05-10T07:21:16.174Z,154717.91
2023-05-10T07:23:48.982Z,154707.50
2023-05-10T07:26:19.126Z,154569.63
2023-05-10T07:28:49.253Z,154676.25
2023-05-10T07:31:19.855Z,154814.16
2023-05-10T07:33:49.972Z,154768.63
2023-05-10T07:36:20.290Z,154756.94
2023-05-10T07:38:53.405Z,154691.91
2023-05-10T07:41:23.685Z,154520.22
2023-05-10T07:43:53.858Z,154494.22
2023-05-10T07:46:24.076Z,154447.41
2023-05-10T07:48:54.390Z,154392.81
2023-05-10T07:51:24.546Z,154414.94
2023-05-10T07:53:58.162Z,154431.81
2023-05-10T07:56:30.832Z,154730.88
2023-05-10T07:59:01.485Z,154819.34
2023-05-10T08:01:35.329Z,154788.16
2023-05-10T08:04:05.973Z,154743.91
2023-05-10T08:06:36.189Z,154756.94
2023-05-10T08:09:08.972Z,154874.03
2023-05-10T08:11:39.288Z,154961.25
2023-05-10T08:14:09.446Z,154974.25
2023-05-10T08:16:39.681Z,155049.78
2023-05-10T08:19:10.053Z,155056.25
2023-05-10T08:21:41.684Z,155025.03
2023-05-10T08:24:14.545Z,155012.00
2023-05-10T08:26:44.738Z,154966.47
2023-05-10T08:29:14.865Z,154793.34
2023-05-10T08:31:45.190Z,154913.09
2023-05-10T08:34:15.451Z,154870.13
2023-05-10T08:36:45.767Z,154872.75
2023-05-10T08:39:29.368Z,154773.84
2023-05-10T08:42:05.669Z,154915.72
2023-05-10T08:44:38.274Z,155105.78
2023-05-10T08:47:10.864Z,155094.03
2023-05-10T08:49:41.673Z,155002.88
2023-05-10T08:52:12.685Z,155183.88
2023-05-10T08:54:45.773Z,155071.88
2023-05-10T08:57:15.949Z,154939.09
2023-05-10T08:59:46.431Z,155121.41
2023-05-10T09:02:18.779Z,155069.25
2023-05-10T09:04:50.404Z,155117.47
2023-05-10T09:07:21.016Z,155065.38
2023-05-10T09:09:54.344Z,154961.25
2023-05-10T09:12:24.754Z,154961.25
2023-05-10T09:14:56.481Z,154905.25
2023-05-10T09:17:28.071Z,154998.97
2023-05-10T09:20:02.328Z,155196.91
2023-05-10T09:22:32.630Z,155026.34
2023-05-10T09:25:15.080Z,155147.44
2023-05-10T09:27:48.983Z,155143.50
2023-05-10T09:30:28.655Z,155259.44
2023-05-10T09:33:00.744Z,155216.44
2023-05-10T09:35:32.770Z,155118.78
2023-05-10T09:38:05.226Z,155134.44
2023-05-10T09:40:38.095Z,155100.59
2023-05-10T09:43:11.990Z,155178.66
2023-05-10T09:45:42.345Z,155236.00
2023-05-10T09:48:12.645Z,155238.56
2023-05-10T09:50:43.055Z,155092.69
2023-05-10T09:53:13.250Z,155316.72
2023-05-10T09:55:48.142Z,155224.28
2023-05-10T09:58:18.986Z,155366.28
2023-05-10T10:00:56.104Z,155371.47
2023-05-10T10:03:27.776Z,155487.44
2023-05-10T10:05:59.236Z,155362.34
2023-05-10T10:08:29.535Z,155174.78
2023-05-10T10:11:02.616Z,155138.31
2023-05-10T10:13:33.505Z,155314.16
2023-05-10T10:16:03.685Z,155514.81
2023-05-10T10:18:35.254Z,155454.88
2023-05-10T10:21:06.418Z,155544.78
2023-05-10T10:23:36.812Z,155273.78
2023-05-10T10:26:10.751Z,155396.25
2023-05-10T10:28:48.686Z,155361.06
2023-05-10T10:31:28.481Z,155305.00
2023-05-10T10:34:05.969Z,155165.69
2023-05-10T10:36:38.197Z,155268.56
2023-05-10T10:39:14.159Z,155289.41
2023-05-10T10:41:55.193Z,155100.59
2023-05-10T10:44:39.339Z,155376.69
2023-05-10T10:47:30.288Z,155228.16
2023-05-10T10:50:14.031Z,155510.91
2023-05-10T10:52:44.362Z,155381.91
2023-05-10T10:55:18.332Z,155419.69
2023-05-10T10:58:01.798Z,155550.06
2023-05-10T11:00:34.796Z,155501.78
2023-05-10T11:03:10.370Z,155484.84
2023-05-10T11:05:45.756Z,155282.84
2023-05-10T11:08:23.068Z,155540.88
2023-05-10T11:11:08.322Z,155522.66
2023-05-10T11:13:43.280Z,155560.47
2023-05-10T11:16:21.737Z,155533.09
2023-05-10T11:19:02.893Z,155681.69
2023-05-10T11:21:33.780Z,155736.44
2023-05-10T11:24:08.220Z,155709.09
2023-05-10T11:26:39.549Z,155749.50
2023-05-10T11:29:12.401Z,155887.78
2023-05-10T11:31:48.102Z,155992.22
2023-05-10T11:34:28.363Z,155857.81
2023-05-10T11:36:59.824Z,155994.78
2023-05-10T11:39:31.753Z,156000.00
2023-05-10T11:42:02.862Z,155866.94
2023-05-10T11:44:36.985Z,155836.94
2023-05-10T11:47:07.237Z,155776.94
2023-05-10T11:49:37.429Z,155610.00
2023-05-10T11:52:12.403Z,155514.81
2023-05-10T11:54:49.904Z,155636.06
2023-05-10T11:57:20.084Z,155576.09
2023-05-10T11:59:57.709Z,155525.25
2023-05-10T12:02:28.263Z,155594.38
2023-05-10T12:04:59.715Z,155735.16
2023-05-10T12:07:30.690Z,155817.38
2023-05-10T12:10:08.990Z,155906.03
2023-05-10T12:12:43.125Z,155709.09
2023-05-10T12:15:22.823Z,155586.53
2023-05-10T12:17:53.964Z,155639.97
2023-05-10T12:20:26.246Z,155582.66
2023-05-10T12:23:00.344Z,155453.59
2023-05-10T12:25:35.229Z,155534.38
2023-05-10T12:28:08.642Z,155819.97
2023-05-10T12:30:42.852Z,155749.50
2023-05-10T12:33:16.189Z,155711.66
2023-05-10T12:35:50.197Z,155594.38
2023-05-10T12:38:31.923Z,155572.19
2023-05-10T12:41:03.395Z,155697.38
2023-05-10T12:43:34.278Z,155784.75
2023-05-10T12:46:12.390Z,155953.00
2023-05-10T12:48:44.028Z,155817.38
2023-05-10T12:51:19.354Z,155654.34
2023-05-10T12:53:49.844Z,155621.72
2023-05-10T12:56:20.051Z,155566.97
2023-05-10T12:58:50.259Z,155628.28
2023-05-10T13:01:23.222Z,155668.69
2023-05-10T13:03:53.404Z,155761.22
2023-05-10T13:06:23.674Z,155823.88
2023-05-10T13:08:53.990Z,155960.81
2023-05-10T13:11:24.478Z,155947.78
2023-05-10T13:13:55.101Z,156030.00
2023-05-10T13:16:28.084Z,155819.97
2023-05-10T13:18:58.355Z,155934.72
2023-05-10T13:21:29.104Z,155942.56
2023-05-10T13:23:59.452Z,155943.88
2023-05-10T13:26:30.037Z,155787.38
2023-05-10T13:29:00.314Z,155827.81
2023-05-10T13:31:33.092Z,155833.00
2023-05-10T13:34:03.561Z,155912.56
2023-05-10T13:36:34.163Z,155909.94
2023-05-10T13:39:06.522Z,155889.09
2023-05-10T13:41:36.687Z,155954.31
2023-05-10T13:44:06.867Z,155920.38
2023-05-10T13:46:39.880Z,155784.75
2023-05-10T13:49:10.426Z,155681.69
2023-05-10T13:51:40.584Z,155557.91
2023-05-10T13:54:13.287Z,155647.81
2023-05-10T13:56:45.178Z,155787.38
2023-05-10T13:59:15.308Z,155923.00
2023-05-10T14:01:48.571Z,155895.59
2023-05-10T14:04:19.753Z,155795.19
2023-05-10T14:06:49.938Z,155809.53
2023-05-10T14:09:20.685Z,155843.44
2023-05-10T14:11:50.980Z,155812.16
2023-05-10T14:14:21.165Z,155943.88
2023-05-10T14:16:53.897Z,155817.38
2023-05-10T14:19:24.007Z,155812.16
2023-05-10T14:21:54.133Z,155814.75
2023-05-10T14:24:24.308Z,155836.94
2023-05-10T14:26:55.241Z,155839.53
2023-05-10T14:29:25.484Z,155881.28
2023-05-10T14:31:58.517Z,155783.47
2023-05-10T14:34:28.744Z,155818.66
2023-05-10T14:36:59.542Z,155860.38
2023-05-10T14:39:30.803Z,155846.03
2023-05-10T14:42:00.956Z,155876.03
2023-05-10T14:44:31.753Z,155799.09
2023-05-10T14:47:04.523Z,155756.00
2023-05-10T14:49:34.794Z,155763.91
2023-05-10T14:52:05.017Z,155816.03
2023-05-10T14:54:35.178Z,155673.88
2023-05-10T14:57:06.658Z,155715.59
2023-05-10T14:59:36.875Z,155752.13
2023-05-10T15:02:11.518Z,155840.81
2023-05-10T15:04:42.248Z,155720.81
2023-05-10T15:07:15.546Z,155744.28
2023-05-10T15:09:45.829Z,155792.59
2023-05-10T15:12:16.040Z,155786.03
2023-05-10T15:14:46.131Z,155765.19
2023-05-10T15:17:18.895Z,155783.47
2023-05-10T15:19:51.889Z,155793.88
2023-05-10T15:22:27.430Z,155787.38
2023-05-10T15:25:00.203Z,155788.66
2023-05-10T15:27:30.612Z,155816.03
2023-05-10T15:30:00.930Z,155736.44
2023-05-10T15:32:33.750Z,155732.56
2023-05-10T15:35:03.954Z,155582.66
2023-05-10T15:37:34.103Z,155539.59
2023-05-10T15:40:06.807Z,155453.59
2023-05-10T15:42:36.960Z,155480.94
2023-05-10T15:45:08.443Z,155518.75
2023-05-10T15:47:43.032Z,155474.44
2023-05-10T15:50:14.177Z,155477.00
2023-05-10T15:52:44.526Z,155546.09
2023-05-10T15:55:15.828Z,155594.38
2023-05-10T15:57:51.038Z,155543.50
2023-05-10T16:00:21.661Z,155538.28
2023-05-10T16:02:56.022Z,155490.06
2023-05-10T16:05:27.718Z,155452.25
2023-05-10T16:07:57.875Z,155404.06
2023-05-10T16:10:28.138Z,155350.66
2023-05-10T16:12:58.447Z,155342.81
2023-05-10T16:15:30.900Z,155346.72
2023-05-10T16:18:05.100Z,155367.56
2023-05-10T16:20:36.340Z,155351.94
2023-05-10T16:23:08.011Z,155340.22
2023-05-10T16:25:38.344Z,155319.34
2023-05-10T16:28:08.586Z,155293.25
2023-05-10T16:30:39.048Z,155314.16
2023-05-10T16:33:11.977Z,155194.34
2023-05-10T16:35:44.557Z,155200.84
2023-05-10T16:38:15.249Z,155177.38
2023-05-10T16:40:50.966Z,155168.25
2023-05-10T16:43:21.722Z,155130.53
2023-05-10T16:45:53.232Z,155090.13
2023-05-10T16:48:26.125Z,155057.56
2023-05-10T16:50:59.143Z,155074.50
2023-05-10T16:53:29.507Z,155038.03
2023-05-10T16:55:59.736Z,155058.84
2023-05-10T16:58:29.909Z,155026.34
2023-05-10T17:01:00.566Z,155013.28
2023-05-10T17:03:33.828Z,155002.88
2023-05-10T17:06:04.000Z,154975.56
2023-05-10T17:08:34.248Z,154953.44
2023-05-10T17:11:05.301Z,154931.31
2023-05-10T17:13:35.477Z,154923.50
2023-05-10T17:16:06.437Z,154889.66
2023-05-10T17:18:39.312Z,154862.34
2023-05-10T17:21:09.696Z,154864.94
2023-05-10T17:23:39.854Z,154821.97
2023-05-10T17:26:10.484Z,154808.94
2023-05-10T17:28:40.874Z,154782.94
2023-05-10T17:31:11.352Z,154762.13
2023-05-10T17:33:44.133Z,154743.91
2023-05-10T17:36:14.304Z,154717.91
2023-05-10T17:38:44.540Z,154712.72
2023-05-10T17:41:14.610Z,154664.56
2023-05-10T17:43:44.824Z,154645.06
2023-05-10T17:46:15.355Z,154637.28
2023-05-10T17:48:48.145Z,154619.06
2023-05-10T17:51:18.296Z,154613.88
2023-05-10T17:53:48.435Z,154593.09
2023-05-10T17:56:18.532Z,154600.84
2023-05-10T17:58:48.796Z,154599.56
2023-05-10T18:01:19.308Z,154593.09
2023-05-10T18:03:53.116Z,154541.00
2023-05-10T18:06:23.746Z,154533.22
2023-05-10T18:08:53.911Z,154505.91
2023-05-10T18:11:24.035Z,154499.41
2023-05-10T18:13:54.384Z,154517.59
2023-05-10T18:16:24.567Z,154499.41
2023-05-10T18:18:57.361Z,154474.72
2023-05-10T18:21:27.566Z,154442.19
2023-05-10T18:23:57.824Z,154453.94
2023-05-10T18:26:28.344Z,154446.13
2023-05-10T18:29:00.693Z,154434.44
2023-05-10T18:31:32.872Z,154439.63
2023-05-10T18:34:05.918Z,154437.00
2023-05-10T18:36:36.246Z,154405.84
2023-05-10T18:39:06.465Z,154377.22
2023-05-10T18:41:37.768Z,154379.84
2023-05-10T18:44:09.001Z,154353.88
2023-05-10T18:46:39.342Z,154348.63
2023-05-10T18:49:12.314Z,154325.28
2023-05-10T18:51:42.439Z,154273.22
2023-05-10T18:54:13.129Z,154260.28
2023-05-10T18:56:45.438Z,154265.47
2023-05-10T18:59:15.982Z,154253.75
2023-05-10T19:01:47.478Z,154261.56
2023-05-10T19:04:24.408Z,154249.88
2023-05-10T19:06:56.094Z,154244.69
2023-05-10T19:09:26.270Z,154255.06
2023-05-10T19:11:56.918Z,154232.97
2023-05-10T19:14:27.947Z,154255.06
2023-05-10T19:17:01.356Z,154251.16
2023-05-10T19:19:35.335Z,154260.28
2023-05-10T19:22:05.539Z,154270.66
2023-05-10T19:24:37.090Z,154282.34
2023-05-10T19:27:07.481Z,154273.22
2023-05-10T19:29:38.014Z,154244.69
2023-05-10T19:32:09.401Z,154234.25
2023-05-10T19:34:42.278Z,154245.97
2023-05-10T19:37:12.443Z,154234.25
2023-05-10T19:39:42.655Z,154234.25
2023-05-10T19:42:12.807Z,154249.88
2023-05-10T19:44:43.119Z,154216.09
2023-05-10T19:47:13.369Z,154204.38
2023-05-10T19:49:46.248Z,154181.03
2023-05-10T19:52:16.443Z,154148.53
2023-05-10T19:54:47.060Z,154117.38
2023-05-10T19:57:17.362Z,154099.19
2023-05-10T19:59:47.600Z,154086.22
2023-05-10T20:02:17.741Z,154116.09
2023-05-10T20:04:50.678Z,154095.28
2023-05-10T20:07:20.878Z,154084.91
2023-05-10T20:09:53.981Z,154104.38
2023-05-10T20:12:24.088Z,154099.19
2023-05-10T20:14:54.285Z,154101.81
2023-05-10T20:17:24.547Z,154074.50
2023-05-10T20:19:57.328Z,154075.84
2023-05-10T20:22:28.812Z,154056.38
2023-05-10T20:24:59.216Z,154060.22
2023-05-10T20:27:29.432Z,154065.41
2023-05-10T20:29:59.571Z,154060.22
2023-05-10T20:32:29.931Z,154042.09
2023-05-10T20:35:02.746Z,154013.47
2023-05-10T20:37:35.677Z,153980.97
2023-05-10T20:40:05.846Z,153965.41
2023-05-10T20:42:36.174Z,153949.84
2023-05-10T20:45:06.695Z,153933.00
2023-05-10T20:47:36.941Z,153900.50
2023-05-10T20:50:11.907Z,153883.66
2023-05-10T20:52:42.405Z,153873.28
2023-05-10T20:55:13.300Z,153917.41
2023-05-10T20:57:43.440Z,153903.13
2023-05-10T21:00:14.993Z,153886.22
2023-05-10T21:02:46.325Z,153882.38
2023-05-10T21:05:20.725Z,153877.13
2023-05-10T21:07:54.299Z,153852.47
2023-05-10T21:10:25.830Z,153855.09
2023-05-10T21:12:55.987Z,153865.47
2023-05-10T21:15:28.146Z,153842.09
2023-05-10T21:17:58.969Z,153844.72
2023-05-10T21:20:33.236Z,153809.69
2023-05-10T21:23:03.329Z,153799.31
2023-05-10T21:25:33.464Z,153800.59
2023-05-10T21:28:03.522Z,153787.59
2023-05-10T21:30:34.081Z,153765.56
2023-05-10T21:33:04.361Z,153743.53
2023-05-10T21:35:39.540Z,153738.31
2023-05-10T21:38:09.867Z,153705.91
2023-05-10T21:40:40.012Z,153687.66
2023-05-10T21:43:11.497Z,153650.09
2023-05-10T21:45:43.324Z,153652.66
2023-05-10T21:48:15.731Z,153611.19
2023-05-10T21:50:49.159Z,153570.97
2023-05-10T21:53:20.137Z,153573.53
2023-05-10T21:55:52.732Z,153546.34
2023-05-10T21:58:22.862Z,153510.00
2023-05-10T22:00:53.659Z,153515.19
2023-05-10T22:03:24.206Z,153519.09
2023-05-10T22:05:57.013Z,153504.81
2023-05-10T22:08:27.214Z,153495.78
2023-05-10T22:10:57.373Z,153497.06
2023-05-10T22:13:28.904Z,153481.50
2023-05-10T22:15:59.054Z,153459.44
2023-05-10T22:18:29.483Z,153460.72
2023-05-10T22:21:02.316Z,153464.63
2023-05-10T22:23:32.427Z,153476.34
2023-05-10T22:26:04.280Z,153449.09
2023-05-10T22:28:34.381Z,153450.38
2023-05-10T22:31:06.260Z,153407.63
2023-05-10T22:33:36.487Z,153419.28
2023-05-10T22:36:09.704Z,153395.94
2023-05-10T22:38:39.936Z,153384.28
2023-05-10T22:41:10.109Z,153380.38
2023-05-10T22:43:40.224Z,153372.63
2023-05-10T22:46:10.331Z,153342.78
2023-05-10T22:48:40.573Z,153337.59
2023-05-10T22:51:13.380Z,153318.16
2023-05-10T22:53:44.760Z,153288.34
2023-05-10T22:56:14.910Z,153281.84
2023-05-10T22:58:45.098Z,153262.41
2023-05-10T23:01:15.307Z,153263.75
2023-05-10T23:03:45.479Z,153263.75
2023-05-10T23:06:18.700Z,153250.75
2023-05-10T23:08:49.542Z,153246.88
2023-05-10T23:11:19.652Z,153240.41
2023-05-10T23:13:50.799Z,153244.31
2023-05-10T23:16:21.583Z,153231.31
2023-05-10T23:18:51.788Z,153228.75
2023-05-10T23:21:25.408Z,153210.59
2023-05-10T23:23:55.605Z,153195.06
2023-05-10T23:26:25.799Z,153197.63
2023-05-10T23:28:55.977Z,153178.19
2023-05-10T23:31:29.075Z,153156.19
2023-05-10T23:33:59.212Z,153152.31
2023-05-10T23:36:32.116Z,153139.38
2023-05-10T23:39:02.217Z,153141.94
2023-05-10T23:41:32.431Z,153118.63
2023-05-10T23:44:03.285Z,153131.59
2023-05-10T23:46:33.449Z,153117.34
2023-05-10T23:49:03.691Z,153105.69
2023-05-10T23:51:36.428Z,153112.16
2023-05-10T23:54:06.717Z,153108.28
2023-05-10T23:56:36.886Z,153113.44
2023-05-10T23:59:07.690Z,153099.19
